sensor_id;sensor_type;location;lat;lon;timestamp;pressure;altitude;pressure_sealevel;temperature;humidity
18275;BME280;19470;49.322;7.218;2023-04-15T00:02:00;97769.78;;;9.21;87.24
18275;BME280;19470;49.322;7.218;2023-04-15T00:04:27;97770.56;;;9.16;87.73
18275;BME280;19470;49.322;7.218;2023-04-15T00:06:57;97767.47;;;9.30;86.22
18275;BME280;19470;49.322;7.218;2023-04-15T00:09:23;97773.09;;;9.43;83.26
18275;BME280;19470;49.322;7.218;2023-04-15T00:11:50;97786.72;;;8.56;86.63
18275;BME280;19470;49.322;7.218;2023-04-15T00:14:16;97787.22;;;8.31;89.63
18275;BME280;19470;49.322;7.218;2023-04-15T00:16:43;97771.19;;;8.91;86.48
18275;BME280;19470;49.322;7.218;2023-04-15T00:19:09;97781.53;;;8.98;87.15
18275;BME280;19470;49.322;7.218;2023-04-15T00:21:36;97774.22;;;9.10;87.63
18275;BME280;19470;49.322;7.218;2023-04-15T00:24:04;97776.47;;;8.91;87.78
18275;BME280;19470;49.322;7.218;2023-04-15T00:26:31;97787.84;;;8.97;88.12
18275;BME280;19470;49.322;7.218;2023-04-15T00:28:58;97784.97;;;9.41;87.27
18275;BME280;19470;49.322;7.218;2023-04-15T00:31:24;97783.16;;;9.41;86.00
18275;BME280;19470;49.322;7.218;2023-04-15T00:33:51;97767.63;;;9.55;86.64
18275;BME280;19470;49.322;7.218;2023-04-15T00:36:18;97771.72;;;9.36;88.46
18275;BME280;19470;49.322;7.218;2023-04-15T00:38:44;97768.75;;;9.22;89.09
18275;BME280;19470;49.322;7.218;2023-04-15T00:41:12;97764.34;;;9.38;88.29
18275;BME280;19470;49.322;7.218;2023-04-15T00:43:39;97761.84;;;9.63;87.08
18275;BME280;19470;49.322;7.218;2023-04-15T00:46:06;97756.72;;;10.04;84.56
18275;BME280;19470;49.322;7.218;2023-04-15T00:48:34;97752.34;;;9.72;86.39
18275;BME280;19470;49.322;7.218;2023-04-15T00:51:02;97757.59;;;9.57;87.85
18275;BME280;19470;49.322;7.218;2023-04-15T00:53:29;97754.97;;;9.62;88.16
18275;BME280;19470;49.322;7.218;2023-04-15T00:55:55;97762.81;;;9.42;88.76
18275;BME280;19470;49.322;7.218;2023-04-15T00:58:23;97752.94;;;9.85;87.08
18275;BME280;19470;49.322;7.218;2023-04-15T01:00:50;97750.13;;;9.44;89.25
18275;BME280;19470;49.322;7.218;2023-04-15T01:03:18;97748.56;;;9.48;89.18
18275;BME280;19470;49.322;7.218;2023-04-15T01:05:45;97746.94;;;9.37;88.11
18275;BME280;19470;49.322;7.218;2023-04-15T01:08:11;97748.56;;;9.53;87.40
18275;BME280;19470;49.322;7.218;2023-04-15T01:10:38;97752.25;;;9.47;86.28
18275;BME280;19470;49.322;7.218;2023-04-15T01:13:04;97748.41;;;9.70;85.77
18275;BME280;19470;49.322;7.218;2023-04-15T01:15:34;97743.28;;;9.48;87.10
18275;BME280;19470;49.322;7.218;2023-04-15T01:18:01;97748.06;;;9.51;87.77
18275;BME280;19470;49.322;7.218;2023-04-15T01:20:28;97733.50;;;9.48;87.05
18275;BME280;19470;49.322;7.218;2023-04-15T01:22:55;97740.25;;;9.29;88.89
18275;BME280;19470;49.322;7.218;2023-04-15T01:25:30;97742.66;;;8.93;91.97
18275;BME280;19470;49.322;7.218;2023-04-15T01:27:57;97741.28;;;9.23;89.34
18275;BME280;19470;49.322;7.218;2023-04-15T01:30:24;97729.69;;;9.97;85.86
18275;BME280;19470;49.322;7.218;2023-04-15T01:32:51;97740.78;;;9.31;87.48
18275;BME280;19470;49.322;7.218;2023-04-15T01:35:17;97738.38;;;9.19;89.01
18275;BME280;19470;49.322;7.218;2023-04-15T01:37:44;97739.81;;;9.00;89.04
18275;BME280;19470;49.322;7.218;2023-04-15T01:40:11;97739.47;;;9.29;87.99
18275;BME280;19470;49.322;7.218;2023-04-15T01:42:40;97741.41;;;9.43;86.20
18275;BME280;19470;49.322;7.218;2023-04-15T01:45:08;97729.53;;;9.46;86.49
18275;BME280;19470;49.322;7.218;2023-04-15T01:47:35;97728.09;;;8.81;89.21
18275;BME280;19470;49.322;7.218;2023-04-15T01:50:01;97724.53;;;9.07;87.92
18275;BME280;19470;49.322;7.218;2023-04-15T01:52:28;97721.19;;;8.80;89.23
18275;BME280;19470;49.322;7.218;2023-04-15T01:54:54;97722.13;;;8.63;89.44
18275;BME280;19470;49.322;7.218;2023-04-15T01:57:21;97718.09;;;8.88;88.24
18275;BME280;19470;49.322;7.218;2023-04-15T01:59:49;97721.75;;;8.82;88.56
18275;BME280;19470;49.322;7.218;2023-04-15T02:02:15;97717.03;;;8.89;87.91
18275;BME280;19470;49.322;7.218;2023-04-15T02:04:42;97721.50;;;8.88;87.89
18275;BME280;19470;49.322;7.218;2023-04-15T02:07:09;97722.38;;;8.94;86.97
18275;BME280;19470;49.322;7.218;2023-04-15T02:09:36;97720.97;;;8.86;87.74
18275;BME280;19470;49.322;7.218;2023-04-15T02:12:03;97719.59;;;8.79;87.44
18275;BME280;19470;49.322;7.218;2023-04-15T02:14:29;97722.47;;;8.40;89.18
18275;BME280;19470;49.322;7.218;2023-04-15T02:16:57;97721.16;;;7.66;95.23
18275;BME280;19470;49.322;7.218;2023-04-15T02:19:31;97728.81;;;8.17;90.48
18275;BME280;19470;49.322;7.218;2023-04-15T02:21:57;97729.97;;;8.53;87.11
18275;BME280;19470;49.322;7.218;2023-04-15T02:24:24;97727.38;;;8.31;87.39
18275;BME280;19470;49.322;7.218;2023-04-15T02:26:50;97732.59;;;7.99;90.05
18275;BME280;19470;49.322;7.218;2023-04-15T02:29:17;97732.00;;;8.46;86.61
18275;BME280;19470;49.322;7.218;2023-04-15T02:31:49;97737.94;;;8.58;85.87
18275;BME280;19470;49.322;7.218;2023-04-15T02:34:17;97736.31;;;8.52;85.84
18275;BME280;19470;49.322;7.218;2023-04-15T02:36:44;97737.03;;;8.20;87.76
18275;BME280;19470;49.322;7.218;2023-04-15T02:39:11;97747.44;;;8.05;89.78
18275;BME280;19470;49.322;7.218;2023-04-15T02:41:41;97741.16;;;8.11;89.75
18275;BME280;19470;49.322;7.218;2023-04-15T02:44:08;97739.69;;;8.48;87.70
18275;BME280;19470;49.322;7.218;2023-04-15T02:46:37;97740.44;;;8.43;88.05
18275;BME280;19470;49.322;7.218;2023-04-15T02:49:05;97738.94;;;8.52;87.46
18275;BME280;19470;49.322;7.218;2023-04-15T02:51:34;97737.94;;;8.58;87.40
18275;BME280;19470;49.322;7.218;2023-04-15T02:54:00;97741.72;;;8.40;88.45
18275;BME280;19470;49.322;7.218;2023-04-15T02:56:27;97738.78;;;8.37;88.03
18275;BME280;19470;49.322;7.218;2023-04-15T02:58:54;97737.81;;;8.21;88.23
18275;BME280;19470;49.322;7.218;2023-04-15T03:01:21;97744.31;;;8.13;88.00
18275;BME280;19470;49.322;7.218;2023-04-15T03:03:47;97744.00;;;7.83;89.24
18275;BME280;19470;49.322;7.218;2023-04-15T03:06:13;97741.13;;;7.84;90.42
18275;BME280;19470;49.322;7.218;2023-04-15T03:08:42;97750.38;;;7.65;90.27
18275;BME280;19470;49.322;7.218;2023-04-15T03:11:08;97747.84;;;8.46;87.07
18275;BME280;19470;49.322;7.218;2023-04-15T03:13:35;97754.13;;;8.40;86.43
18275;BME280;19470;49.322;7.218;2023-04-15T03:16:04;97746.66;;;7.83;89.95
18275;BME280;19470;49.322;7.218;2023-04-15T03:18:30;97750.50;;;7.97;89.97
18275;BME280;19470;49.322;7.218;2023-04-15T03:20:57;97757.69;;;8.29;87.49
18275;BME280;19470;49.322;7.218;2023-04-15T03:23:23;97743.72;;;8.60;85.60
18275;BME280;19470;49.322;7.218;2023-04-15T03:25:51;97753.28;;;8.12;87.98
18275;BME280;19470;49.322;7.218;2023-04-15T03:28:20;97749.66;;;7.91;90.17
18275;BME280;19470;49.322;7.218;2023-04-15T03:30:46;97753.44;;;8.28;88.94
18275;BME280;19470;49.322;7.218;2023-04-15T03:33:13;97755.38;;;8.10;89.30
18275;BME280;19470;49.322;7.218;2023-04-15T03:35:39;97756.34;;;8.04;88.92
18275;BME280;19470;49.322;7.218;2023-04-15T03:38:06;97752.56;;;7.95;89.70
18275;BME280;19470;49.322;7.218;2023-04-15T03:40:32;97759.78;;;7.78;90.18
18275;BME280;19470;49.322;7.218;2023-04-15T03:43:00;97754.34;;;7.89;88.97
18275;BME280;19470;49.322;7.218;2023-04-15T03:45:27;97756.19;;;7.89;91.30
18275;BME280;19470;49.322;7.218;2023-04-15T03:47:53;97755.28;;;8.00;90.91
18275;BME280;19470;49.322;7.218;2023-04-15T03:50:20;97751.59;;;8.01;90.97
18275;BME280;19470;49.322;7.218;2023-04-15T03:52:47;97754.19;;;7.96;90.81
18275;BME280;19470;49.322;7.218;2023-04-15T03:55:13;97754.88;;;8.13;90.17
18275;BME280;19470;49.322;7.218;2023-04-15T03:57:40;97755.38;;;8.10;89.31
18275;BME280;19470;49.322;7.218;2023-04-15T04:00:09;97756.06;;;8.28;88.60
18275;BME280;19470;49.322;7.218;2023-04-15T04:02:35;97760.75;;;8.20;89.58
18275;BME280;19470;49.322;7.218;2023-04-15T04:05:02;97764.63;;;8.13;89.52
18275;BME280;19470;49.322;7.218;2023-04-15T04:07:29;97755.88;;;8.07;89.89
18275;BME280;19470;49.322;7.218;2023-04-15T04:09:56;97756.88;;;8.01;90.25
18275;BME280;19470;49.322;7.218;2023-04-15T04:12:23;97756.09;;;8.01;90.45
18275;BME280;19470;49.322;7.218;2023-04-15T04:14:49;97762.75;;;8.35;88.53
18275;BME280;19470;49.322;7.218;2023-04-15T04:17:17;97756.03;;;8.23;87.85
18275;BME280;19470;49.322;7.218;2023-04-15T04:19:44;97753.84;;;8.68;85.12
18275;BME280;19470;49.322;7.218;2023-04-15T04:22:10;97762.03;;;8.40;86.56
18275;BME280;19470;49.322;7.218;2023-04-15T04:24:37;97761.59;;;8.48;88.01
18275;BME280;19470;49.322;7.218;2023-04-15T04:27:04;97765.81;;;8.27;88.66
18275;BME280;19470;49.322;7.218;2023-04-15T04:29:30;97766.88;;;8.48;87.80
18275;BME280;19470;49.322;7.218;2023-04-15T04:31:57;97769.94;;;8.40;88.89
18275;BME280;19470;49.322;7.218;2023-04-15T04:34:25;97760.69;;;9.02;85.56
18275;BME280;19470;49.322;7.218;2023-04-15T04:36:51;97766.38;;;9.26;84.03
18275;BME280;19470;49.322;7.218;2023-04-15T04:39:18;97766.22;;;9.00;84.26
18275;BME280;19470;49.322;7.218;2023-04-15T04:41:44;97762.06;;;8.72;86.39
18275;BME280;19470;49.322;7.218;2023-04-15T04:44:11;97765.38;;;8.35;87.86
18275;BME280;19470;49.322;7.218;2023-04-15T04:46:37;97764.25;;;8.26;88.04
18275;BME280;19470;49.322;7.218;2023-04-15T04:49:04;97762.50;;;8.96;85.09
18275;BME280;19470;49.322;7.218;2023-04-15T04:51:32;97770.81;;;8.78;84.99
18275;BME280;19470;49.322;7.218;2023-04-15T04:53:58;97765.03;;;8.27;87.92
18275;BME280;19470;49.322;7.218;2023-04-15T04:56:25;97768.69;;;8.20;88.77
18275;BME280;19470;49.322;7.218;2023-04-15T04:58:51;97770.69;;;8.13;88.82
18275;BME280;19470;49.322;7.218;2023-04-15T05:01:18;97775.78;;;8.74;85.65
18275;BME280;19470;49.322;7.218;2023-04-15T05:03:45;97790.16;;;8.56;88.43
18275;BME280;19470;49.322;7.218;2023-04-15T05:06:11;97786.25;;;8.37;90.19
18275;BME280;19470;49.322;7.218;2023-04-15T05:08:39;97789.50;;;8.44;89.53
18275;BME280;19470;49.322;7.218;2023-04-15T05:11:06;97785.56;;;8.47;89.78
18275;BME280;19470;49.322;7.218;2023-04-15T05:13:33;97787.00;;;8.59;88.51
18275;BME280;19470;49.322;7.218;2023-04-15T05:16:03;97793.88;;;8.11;91.15
18275;BME280;19470;49.322;7.218;2023-04-15T05:18:29;97788.03;;;8.31;94.66
18275;BME280;19470;49.322;7.218;2023-04-15T05:20:56;97794.56;;;8.24;91.58
18275;BME280;19470;49.322;7.218;2023-04-15T05:23:23;97782.19;;;8.51;90.74
18275;BME280;19470;49.322;7.218;2023-04-15T05:25:51;97781.69;;;8.54;90.00
18275;BME280;19470;49.322;7.218;2023-04-15T05:28:17;97789.16;;;8.62;89.60
18275;BME280;19470;49.322;7.218;2023-04-15T05:30:44;97780.16;;;8.90;88.71
18275;BME280;19470;49.322;7.218;2023-04-15T05:33:11;97785.66;;;9.21;87.06
18275;BME280;19470;49.322;7.218;2023-04-15T05:35:37;97783.50;;;9.13;86.84
18275;BME280;19470;49.322;7.218;2023-04-15T05:38:03;97789.19;;;9.37;86.21
18275;BME280;19470;49.322;7.218;2023-04-15T05:40:30;97782.03;;;8.95;88.13
18275;BME280;19470;49.322;7.218;2023-04-15T05:42:58;97785.59;;;8.79;89.51
18275;BME280;19470;49.322;7.218;2023-04-15T05:45:25;97782.59;;;9.02;88.77
18275;BME280;19470;49.322;7.218;2023-04-15T05:47:51;97780.25;;;9.06;88.79
18275;BME280;19470;49.322;7.218;2023-04-15T05:50:18;97782.13;;;9.53;87.49
18275;BME280;19470;49.322;7.218;2023-04-15T05:52:45;97785.94;;;9.72;86.27
18275;BME280;19470;49.322;7.218;2023-04-15T05:55:12;97788.28;;;9.63;86.88
18275;BME280;19470;49.322;7.218;2023-04-15T05:57:39;97791.47;;;9.65;88.48
18275;BME280;19470;49.322;7.218;2023-04-15T06:00:08;97800.00;;;9.83;88.32
18275;BME280;19470;49.322;7.218;2023-04-15T06:02:35;97803.22;;;9.95;87.29
18275;BME280;19470;49.322;7.218;2023-04-15T06:05:02;97795.47;;;10.36;86.53
18275;BME280;19470;49.322;7.218;2023-04-15T06:07:29;97798.41;;;10.70;85.33
18275;BME280;19470;49.322;7.218;2023-04-15T06:09:55;97792.59;;;10.73;84.07
18275;BME280;19470;49.322;7.218;2023-04-15T06:12:22;97802.38;;;11.18;81.75
18275;BME280;19470;49.322;7.218;2023-04-15T06:14:48;97798.13;;;11.33;79.14
18275;BME280;19470;49.322;7.218;2023-04-15T06:17:16;97792.34;;;11.15;79.96
18275;BME280;19470;49.322;7.218;2023-04-15T06:19:43;97800.63;;;11.99;76.99
18275;BME280;19470;49.322;7.218;2023-04-15T06:22:10;97796.69;;;11.86;76.92
18275;BME280;19470;49.322;7.218;2023-04-15T06:24:36;97793.91;;;12.17;74.69
18275;BME280;19470;49.322;7.218;2023-04-15T06:27:03;97795.63;;;12.47;73.89
18275;BME280;19470;49.322;7.218;2023-04-15T06:29:29;97804.63;;;12.46;74.29
18275;BME280;19470;49.322;7.218;2023-04-15T06:31:56;97801.66;;;12.03;75.23
18275;BME280;19470;49.322;7.218;2023-04-15T06:34:24;97810.72;;;11.92;78.02
18275;BME280;19470;49.322;7.218;2023-04-15T06:36:51;97801.00;;;12.26;74.32
18275;BME280;19470;49.322;7.218;2023-04-15T06:39:18;97805.94;;;12.88;73.05
18275;BME280;19470;49.322;7.218;2023-04-15T06:41:45;97809.28;;;13.03;70.23
18275;BME280;19470;49.322;7.218;2023-04-15T06:44:12;97805.84;;;12.64;71.52
18275;BME280;19470;49.322;7.218;2023-04-15T06:46:38;97796.69;;;13.14;69.36
18275;BME280;19470;49.322;7.218;2023-04-15T06:49:05;97804.44;;;13.93;67.05
18275;BME280;19470;49.322;7.218;2023-04-15T06:51:34;97803.88;;;13.72;69.78
18275;BME280;19470;49.322;7.218;2023-04-15T06:54:01;97804.16;;;13.94;67.91
18275;BME280;19470;49.322;7.218;2023-04-15T06:56:30;97803.97;;;13.86;70.40
18275;BME280;19470;49.322;7.218;2023-04-15T06:58:56;97805.06;;;15.03;64.03
18275;BME280;19470;49.322;7.218;2023-04-15T07:01:23;97792.97;;;14.16;67.23
18275;BME280;19470;49.322;7.218;2023-04-15T07:03:50;97800.03;;;14.45;67.72
18275;BME280;19470;49.322;7.218;2023-04-15T07:06:16;97798.53;;;14.76;66.16
18275;BME280;19470;49.322;7.218;2023-04-15T07:08:44;97800.34;;;16.15;63.18
18275;BME280;19470;49.322;7.218;2023-04-15T07:11:11;97804.69;;;16.11;62.03
18275;BME280;19470;49.322;7.218;2023-04-15T07:13:37;97799.09;;;16.49;60.27
18275;BME280;19470;49.322;7.218;2023-04-15T07:16:04;97798.25;;;16.62;59.82
18275;BME280;19470;49.322;7.218;2023-04-15T07:18:31;97798.84;;;16.95;57.05
18275;BME280;19470;49.322;7.218;2023-04-15T07:20:57;97797.22;;;17.08;58.52
18275;BME280;19470;49.322;7.218;2023-04-15T07:23:24;97804.97;;;17.18;57.98
18275;BME280;19470;49.322;7.218;2023-04-15T07:25:51;97800.19;;;16.48;60.57
18275;BME280;19470;49.322;7.218;2023-04-15T07:28:18;97788.34;;;17.61;55.19
18275;BME280;19470;49.322;7.218;2023-04-15T07:30:44;97801.06;;;17.86;55.04
18275;BME280;19470;49.322;7.218;2023-04-15T07:33:11;97805.06;;;17.04;57.09
18275;BME280;19470;49.322;7.218;2023-04-15T07:35:37;97799.28;;;18.30;54.20
18275;BME280;19470;49.322;7.218;2023-04-15T07:38:04;97796.38;;;18.01;54.20
18275;BME280;19470;49.322;7.218;2023-04-15T07:40:31;97804.81;;;17.46;56.41
18275;BME280;19470;49.322;7.218;2023-04-15T07:42:59;97802.34;;;17.89;53.14
18275;BME280;19470;49.322;7.218;2023-04-15T07:45:26;97809.16;;;16.88;52.50
18275;BME280;19470;49.322;7.218;2023-04-15T07:47:52;97800.56;;;18.42;51.99
18275;BME280;19470;49.322;7.218;2023-04-15T07:50:20;97811.38;;;18.10;53.51
18275;BME280;19470;49.322;7.218;2023-04-15T07:52:47;97804.34;;;18.58;53.63
18275;BME280;19470;49.322;7.218;2023-04-15T07:55:14;97807.53;;;18.95;51.41
18275;BME280;19470;49.322;7.218;2023-04-15T07:57:43;97810.03;;;19.00;48.61
18275;BME280;19470;49.322;7.218;2023-04-15T08:00:13;97810.63;;;19.87;47.57
18275;BME280;19470;49.322;7.218;2023-04-15T08:02:40;97812.16;;;19.97;46.47
18275;BME280;19470;49.322;7.218;2023-04-15T08:05:07;97808.84;;;20.00;47.71
18275;BME280;19470;49.322;7.218;2023-04-15T08:07:35;97809.88;;;20.07;47.01
18275;BME280;19470;49.322;7.218;2023-04-15T08:10:02;97819.78;;;20.45;46.99
18275;BME280;19470;49.322;7.218;2023-04-15T08:12:28;97823.88;;;19.92;46.99
18275;BME280;19470;49.322;7.218;2023-04-15T08:18:03;97824.72;;;19.11;49.96
18275;BME280;19470;49.322;7.218;2023-04-15T08:20:30;97825.09;;;19.65;46.55
18275;BME280;19470;49.322;7.218;2023-04-15T08:22:57;97829.31;;;19.75;46.08
18275;BME280;19470;49.322;7.218;2023-04-15T08:25:23;97831.56;;;20.61;46.75
18275;BME280;19470;49.322;7.218;2023-04-15T08:27:50;97832.94;;;21.42;42.73
18275;BME280;19470;49.322;7.218;2023-04-15T08:30:17;97833.91;;;20.84;43.86
18275;BME280;19470;49.322;7.218;2023-04-15T08:32:44;97835.38;;;19.54;48.09
18275;BME280;19470;49.322;7.218;2023-04-15T08:35:12;97836.31;;;19.67;46.39
18275;BME280;19470;49.322;7.218;2023-04-15T08:37:39;97833.94;;;20.33;44.65
18275;BME280;19470;49.322;7.218;2023-04-15T08:40:08;97837.56;;;19.70;49.47
18275;BME280;19470;49.322;7.218;2023-04-15T08:42:36;97847.09;;;19.97;45.66
18275;BME280;19470;49.322;7.218;2023-04-15T08:45:08;97842.31;;;20.02;48.71
18275;BME280;19470;49.322;7.218;2023-04-15T08:47:37;97845.84;;;20.74;46.72
18275;BME280;19470;49.322;7.218;2023-04-15T08:50:04;97845.94;;;20.86;44.63
18275;BME280;19470;49.322;7.218;2023-04-15T08:52:35;97842.88;;;21.09;43.56
18275;BME280;19470;49.322;7.218;2023-04-15T08:55:02;97845.59;;;20.08;45.03
18275;BME280;19470;49.322;7.218;2023-04-15T08:57:30;97841.47;;;20.49;42.97
18275;BME280;19470;49.322;7.218;2023-04-15T08:59:59;97846.81;;;21.32;41.48
18275;BME280;19470;49.322;7.218;2023-04-15T09:02:27;97856.38;;;22.24;40.08
18275;BME280;19470;49.322;7.218;2023-04-15T09:04:54;97846.19;;;22.82;37.04
18275;BME280;19470;49.322;7.218;2023-04-15T09:07:20;97847.03;;;21.97;40.21
18275;BME280;19470;49.322;7.218;2023-04-15T09:09:48;97844.56;;;23.50;36.53
18275;BME280;19470;49.322;7.218;2023-04-15T09:12:15;97849.47;;;23.76;35.71
18275;BME280;19470;49.322;7.218;2023-04-15T09:14:44;97850.44;;;23.83;38.19
18275;BME280;19470;49.322;7.218;2023-04-15T09:17:11;97847.88;;;23.59;36.07
18275;BME280;19470;49.322;7.218;2023-04-15T09:19:38;97852.00;;;24.16;34.31
18275;BME280;19470;49.322;7.218;2023-04-15T09:22:05;97854.09;;;24.07;36.84
18275;BME280;19470;49.322;7.218;2023-04-15T09:24:35;97849.72;;;24.18;33.78
18275;BME280;19470;49.322;7.218;2023-04-15T09:27:05;97852.41;;;22.58;38.04
18275;BME280;19470;49.322;7.218;2023-04-15T09:29:32;97845.72;;;23.80;33.99
18275;BME280;19470;49.322;7.218;2023-04-15T09:32:08;97851.72;;;25.49;32.48
18275;BME280;19470;49.322;7.218;2023-04-15T09:34:35;97852.44;;;25.89;31.46
18275;BME280;19470;49.322;7.218;2023-04-15T09:37:02;97852.78;;;25.45;31.03
18275;BME280;19470;49.322;7.218;2023-04-15T09:39:44;97861.38;;;25.70;31.23
18275;BME280;19470;49.322;7.218;2023-04-15T09:42:12;97868.78;;;22.90;30.64
18275;BME280;19470;49.322;7.218;2023-04-15T09:44:39;97863.44;;;23.93;29.49
18275;BME280;19470;49.322;7.218;2023-04-15T09:47:05;97861.50;;;23.62;31.16
18275;BME280;19470;49.322;7.218;2023-04-15T09:49:32;97862.59;;;24.05;29.89
18275;BME280;19470;49.322;7.218;2023-04-15T09:51:59;97860.69;;;23.62;29.61
18275;BME280;19470;49.322;7.218;2023-04-15T09:54:33;97856.56;;;26.06;28.88
18275;BME280;19470;49.322;7.218;2023-04-15T09:57:04;97860.31;;;26.77;27.14
18275;BME280;19470;49.322;7.218;2023-04-15T09:59:33;97861.88;;;23.92;30.35
18275;BME280;19470;49.322;7.218;2023-04-15T10:02:02;97859.72;;;24.84;28.44
18275;BME280;19470;49.322;7.218;2023-04-15T10:04:30;97851.78;;;27.42;26.40
18275;BME280;19470;49.322;7.218;2023-04-15T10:06:58;97860.97;;;26.14;27.42
18275;BME280;19470;49.322;7.218;2023-04-15T10:09:26;97857.88;;;26.98;26.02
18275;BME280;19470;49.322;7.218;2023-04-15T10:11:53;97860.38;;;26.50;25.52
18275;BME280;19470;49.322;7.218;2023-04-15T10:14:20;97855.03;;;27.99;25.77
18275;BME280;19470;49.322;7.218;2023-04-15T10:16:48;97867.28;;;24.75;28.12
18275;BME280;19470;49.322;7.218;2023-04-15T10:19:17;97873.53;;;25.57;26.69
18275;BME280;19470;49.322;7.218;2023-04-15T10:21:45;97876.94;;;26.72;26.43
18275;BME280;19470;49.322;7.218;2023-04-15T10:24:12;97865.19;;;27.62;25.44
18275;BME280;19470;49.322;7.218;2023-04-15T10:26:41;97865.50;;;27.94;23.77
18275;BME280;19470;49.322;7.218;2023-04-15T10:29:08;97873.72;;;25.25;24.97
18275;BME280;19470;49.322;7.218;2023-04-15T10:31:36;97867.31;;;28.93;23.10
18275;BME280;19470;49.322;7.218;2023-04-15T10:34:05;97866.53;;;27.08;25.64
18275;BME280;19470;49.322;7.218;2023-04-15T10:36:32;97865.16;;;27.21;25.47
18275;BME280;19470;49.322;7.218;2023-04-15T10:38:59;97867.22;;;26.18;26.42
18275;BME280;19470;49.322;7.218;2023-04-15T10:41:26;97889.13;;;26.06;26.73
18275;BME280;19470;49.322;7.218;2023-04-15T10:43:59;97883.06;;;26.16;25.62
18275;BME280;19470;49.322;7.218;2023-04-15T10:46:34;97892.03;;;24.58;26.93
18275;BME280;19470;49.322;7.218;2023-04-15T10:49:07;97890.47;;;24.57;27.60
18275;BME280;19470;49.322;7.218;2023-04-15T10:51:37;97899.94;;;22.02;30.43
18275;BME280;19470;49.322;7.218;2023-04-15T10:54:08;97906.50;;;22.37;29.61
18275;BME280;19470;49.322;7.218;2023-04-15T10:56:35;97909.22;;;22.50;29.83
18275;BME280;19470;49.322;7.218;2023-04-15T10:59:04;97915.94;;;22.56;29.33
18275;BME280;19470;49.322;7.218;2023-04-15T11:01:59;97909.13;;;23.39;28.99
18275;BME280;19470;49.322;7.218;2023-04-15T11:04:55;97923.53;;;23.03;29.88
18275;BME280;19470;49.322;7.218;2023-04-15T11:07:36;97923.16;;;22.27;30.78
18275;BME280;19470;49.322;7.218;2023-04-15T11:13:21;97934.13;;;22.95;31.12
18275;BME280;19470;49.322;7.218;2023-04-15T11:15:49;97929.88;;;23.51;30.37
18275;BME280;19470;49.322;7.218;2023-04-15T11:18:17;97922.59;;;24.11;28.24
18275;BME280;19470;49.322;7.218;2023-04-15T11:20:45;97919.63;;;24.98;28.32
18275;BME280;19470;49.322;7.218;2023-04-15T11:23:13;97936.16;;;26.13;27.77
18275;BME280;19470;49.322;7.218;2023-04-15T11:25:40;97932.63;;;24.93;29.96
18275;BME280;19470;49.322;7.218;2023-04-15T11:28:07;97931.56;;;25.94;28.43
18275;BME280;19470;49.322;7.218;2023-04-15T11:30:35;97946.63;;;25.92;27.92
18275;BME280;19470;49.322;7.218;2023-04-15T11:33:05;97936.88;;;26.86;26.31
18275;BME280;19470;49.322;7.218;2023-04-15T11:35:32;97947.13;;;26.43;26.43
18275;BME280;19470;49.322;7.218;2023-04-15T11:38:02;97939.41;;;28.40;24.66
18275;BME280;19470;49.322;7.218;2023-04-15T11:40:29;97943.81;;;29.25;24.13
18275;BME280;19470;49.322;7.218;2023-04-15T11:43:05;97945.19;;;27.94;26.88
18275;BME280;19470;49.322;7.218;2023-04-15T11:45:32;97949.41;;;26.41;26.50
18275;BME280;19470;49.322;7.218;2023-04-15T11:48:07;97945.06;;;26.60;26.86
18275;BME280;19470;49.322;7.218;2023-04-15T11:50:34;97949.94;;;27.64;25.53
18275;BME280;19470;49.322;7.218;2023-04-15T11:53:02;97952.31;;;27.35;26.02
18275;BME280;19470;49.322;7.218;2023-04-15T11:55:29;97953.47;;;27.34;25.06
18275;BME280;19470;49.322;7.218;2023-04-15T11:58:07;97962.06;;;27.10;25.35
18275;BME280;19470;49.322;7.218;2023-04-15T12:00:34;97958.13;;;28.45;24.55
18275;BME280;19470;49.322;7.218;2023-04-15T12:03:24;97951.41;;;28.91;23.24
18275;BME280;19470;49.322;7.218;2023-04-15T12:06:05;97963.06;;;28.88;24.48
18275;BME280;19470;49.322;7.218;2023-04-15T12:08:48;97966.06;;;26.40;25.23
18275;BME280;19470;49.322;7.218;2023-04-15T12:11:15;97967.25;;;27.48;24.07
18275;BME280;19470;49.322;7.218;2023-04-15T12:13:42;97971.72;;;25.85;25.89
18275;BME280;19470;49.322;7.218;2023-04-15T12:16:09;97984.72;;;24.86;28.19
18275;BME280;19470;49.322;7.218;2023-04-15T12:18:37;97985.50;;;23.64;29.27
18275;BME280;19470;49.322;7.218;2023-04-15T12:21:08;97978.19;;;24.56;29.76
18275;BME280;19470;49.322;7.218;2023-04-15T12:23:36;97988.63;;;24.89;29.49
18275;BME280;19470;49.322;7.218;2023-04-15T12:26:04;97991.75;;;25.07;27.87
18275;BME280;19470;49.322;7.218;2023-04-15T12:28:30;97982.63;;;27.37;26.33
18275;BME280;19470;49.322;7.218;2023-04-15T12:30:57;97983.94;;;25.21;27.92
18275;BME280;19470;49.322;7.218;2023-04-15T12:33:31;98007.72;;;26.05;27.92
18275;BME280;19470;49.322;7.218;2023-04-15T12:35:59;97999.94;;;26.04;27.65
18275;BME280;19470;49.322;7.218;2023-04-15T12:38:26;98008.25;;;26.57;26.79
18275;BME280;19470;49.322;7.218;2023-04-15T12:40:52;98008.41;;;25.24;27.82
18275;BME280;19470;49.322;7.218;2023-04-15T12:43:19;98017.66;;;25.78;27.36
18275;BME280;19470;49.322;7.218;2023-04-15T12:45:45;98005.69;;;25.60;27.32
18275;BME280;19470;49.322;7.218;2023-04-15T12:48:12;98021.06;;;24.69;29.00
18275;BME280;19470;49.322;7.218;2023-04-15T12:50:38;98030.34;;;24.84;27.42
18275;BME280;19470;49.322;7.218;2023-04-15T12:53:06;98032.91;;;25.28;28.22
18275;BME280;19470;49.322;7.218;2023-04-15T12:55:33;98033.66;;;26.03;26.55
18275;BME280;19470;49.322;7.218;2023-04-15T12:58:00;98034.88;;;24.64;27.04
18275;BME280;19470;49.322;7.218;2023-04-15T13:00:26;98044.97;;;23.52;27.29
18275;BME280;19470;49.322;7.218;2023-04-15T13:02:53;98046.63;;;23.68;26.75
18275;BME280;19470;49.322;7.218;2023-04-15T13:05:19;98052.34;;;23.27;28.14
18275;BME280;19470;49.322;7.218;2023-04-15T13:07:46;98065.56;;;24.25;27.13
18275;BME280;19470;49.322;7.218;2023-04-15T13:10:14;98059.63;;;22.77;28.76
18275;BME280;19470;49.322;7.218;2023-04-15T13:12:40;98067.53;;;23.43;27.93
18275;BME280;19470;49.322;7.218;2023-04-15T13:15:08;98065.28;;;24.42;27.67